Time;durP1;ratioP1;P1;durP2;ratioP2;P2;SDS_P1;SDS_P2;PMS_P1;PMS_P2;Temp;Humidity;BMP_temperature;BMP_pressure;BME280_temperature;BME280_humidity;BME280_pressure;Samples;Min_cycle;Max_cycle;Signal;HPM_P1;HPM_P2
2023/10/25 00:00:30;;;;;;;1.00;1.00;;;;;;;25.01;32.59;98157.56;7398217;19;20014;-82
2023/10/25 00:02:56;;;;;;;1.13;1.13;;;;;;;24.43;33.66;98160.25;7395615;19;20014;-82
2023/10/25 00:05:22;;;;;;;2.85;0.95;;;;;;;24.64;32.82;98155.25;7388096;19;20418;-82
2023/10/25 00:07:48;;;;;;;3.13;1.35;;;;;;;23.89;33.52;98149.53;7389442;19;20010;-82
2023/10/25 00:10:14;;;;;;;0.45;0.45;;;;;;;23.82;33.57;98150.47;7389920;19;20014;-82
2023/10/25 00:12:40;;;;;;;1.05;1.05;;;;;;;23.07;34.52;98147.41;7387182;19;20014;-82
2023/10/25 00:15:07;;;;;;;0.60;0.60;;;;;;;23.50;33.96;98148.28;7392452;19;20015;-82
2023/10/25 00:17:33;;;;;;;0.40;0.40;;;;;;;23.79;33.46;98157.38;7389641;19;20018;-82
2023/10/25 00:19:59;;;;;;;0.45;0.45;;;;;;;24.53;32.80;98152.34;7390380;19;20343;-82
2023/10/25 00:22:25;;;;;;;1.33;1.23;;;;;;;23.06;34.22;98148.00;7389252;19;20003;-81
2023/10/25 00:24:51;;;;;;;0.47;0.47;;;;;;;23.97;33.27;98155.75;7389782;19;20016;-82
2023/10/25 00:27:17;;;;;;;0.55;0.55;;;;;;;25.24;32.08;98155.50;7389371;19;20006;-82
2023/10/25 00:29:43;;;;;;;0.73;0.73;;;;;;;25.98;31.43;98144.31;7391731;19;20002;-82
2023/10/25 00:32:14;;;;;;;0.55;0.55;;;;;;;25.39;31.64;98151.41;7391034;19;20383;-82
2023/10/25 00:34:41;;;;;;;4.18;1.73;;;;;;;24.63;32.54;98153.00;7392981;19;20006;-82
2023/10/25 00:37:09;;;;;;;1.88;0.80;;;;;;;23.73;33.09;98148.47;7372485;19;20014;-82
2023/10/25 00:39:35;;;;;;;0.50;0.50;;;;;;;23.96;33.54;98142.16;7390426;19;20018;-82
2023/10/25 00:42:01;;;;;;;0.65;0.65;;;;;;;22.96;34.30;98150.13;7388250;19;20007;-82
2023/10/25 00:44:27;;;;;;;0.43;0.43;;;;;;;23.03;33.81;98152.03;7391245;19;20053;-82
2023/10/25 00:46:53;;;;;;;0.30;0.30;;;;;;;23.28;33.66;98149.56;7392247;19;20413;-82
2023/10/25 00:49:19;;;;;;;0.47;0.47;;;;;;;24.71;31.82;98145.00;7389045;19;20040;-82
2023/10/25 00:51:46;;;;;;;1.05;1.05;;;;;;;23.06;33.52;98143.09;7390498;19;20006;-82
2023/10/25 00:54:14;;;;;;;0.82;0.82;;;;;;;22.23;34.76;98136.34;7389825;19;20010;-82
2023/10/25 00:56:41;;;;;;;0.47;0.47;;;;;;;21.99;34.60;98139.47;7389891;19;20613;-81
2023/10/25 00:59:10;;;;;;;1.30;0.60;;;;;;;21.42;35.67;98142.91;7390626;19;20015;-81
2023/10/25 01:01:37;;;;;;;0.30;0.30;;;;;;;22.39;34.55;98143.19;7389046;19;20014;-82
2023/10/25 01:04:03;;;;;;;0.35;0.35;;;;;;;21.31;35.72;98140.66;7392351;19;20047;-82
2023/10/25 01:06:29;;;;;;;0.88;0.88;;;;;;;20.35;37.40;98145.75;7389373;19;20043;-82
2023/10/25 01:08:58;;;;;;;0.77;0.52;;;;;;;21.18;36.37;98138.22;7388938;19;20017;-84
2023/10/25 01:11:25;;;;;;;1.05;0.98;;;;;;;22.10;35.28;98133.19;7388627;19;20028;-84
2023/10/25 01:13:52;;;;;;;0.70;0.70;;;;;;;22.13;35.17;98137.69;7388272;19;20070;-84
2023/10/25 01:16:19;;;;;;;0.30;0.30;;;;;;;22.21;35.14;98126.94;7389784;19;20016;-83
2023/10/25 01:18:45;;;;;;;2.17;0.47;;;;;;;21.33;36.19;98132.31;7388293;19;20066;-83
2023/10/25 01:21:11;;;;;;;2.47;1.05;;;;;;;20.80;36.73;98133.84;7388839;19;20033;-83
2023/10/25 01:23:37;;;;;;;0.93;0.90;;;;;;;21.55;35.90;98131.19;7390620;19;20070;-83
2023/10/25 01:26:04;;;;;;;1.77;1.67;;;;;;;21.00;36.13;98121.28;7388639;19;20426;-83
2023/10/25 01:28:30;;;;;;;0.80;0.50;;;;;;;20.95;36.35;98132.84;7388989;19;20022;-83
2023/10/25 01:30:56;;;;;;;0.47;0.47;;;;;;;20.35;37.48;98134.44;7387971;19;20014;-83
2023/10/25 01:33:22;;;;;;;11.98;1.35;;;;;;;20.25;37.78;98136.44;7387376;19;20014;-82
2023/10/25 01:35:50;;;;;;;1.27;1.08;;;;;;;20.48;36.91;98125.63;7387933;19;20011;-82
2023/10/25 01:38:16;;;;;;;1.77;1.67;;;;;;;18.70;38.98;98126.13;7387182;19;20468;-82
2023/10/25 01:40:42;;;;;;;0.30;0.30;;;;;;;18.43;39.83;98125.88;7387185;19;20010;-83
2023/10/25 01:43:08;;;;;;;3.22;0.90;;;;;;;21.91;35.57;98116.94;7370409;19;20010;-82
2023/10/25 01:45:35;;;;;;;2.03;0.77;;;;;;;22.84;34.48;98121.63;7387639;19;20007;-83
2023/10/25 01:48:01;;;;;;;0.20;0.20;;;;;;;19.86;37.89;98123.31;7389169;19;20372;-83
2023/10/25 01:50:27;;;;;;;0.50;0.50;;;;;;;20.05;37.94;98118.59;7387393;19;20002;-82
2023/10/25 01:52:53;;;;;;;2.88;0.95;;;;;;;20.46;37.15;98125.44;7388931;19;20101;-83
2023/10/25 01:55:19;;;;;;;0.73;0.73;;;;;;;20.86;36.47;98114.50;7394274;19;20011;-82
2023/10/25 01:57:45;;;;;;;1.20;0.90;;;;;;;20.82;36.83;98119.84;7395271;19;20010;-81
2023/10/25 02:00:12;;;;;;;0.90;0.90;;;;;;;20.81;36.78;98111.97;7393620;19;19999;-83
2023/10/25 02:02:41;;;;;;;0.70;0.70;;;;;;;20.99;36.38;98099.97;7393052;19;20014;-83
2023/10/25 02:05:08;;;;;;;0.50;0.50;;;;;;;20.98;36.59;98104.16;7394043;19;20451;-82
2023/10/25 02:07:34;;;;;;;8.90;2.97;;;;;;;22.56;34.77;98089.13;7393215;19;20072;-82
2023/10/25 02:10:00;;;;;;;0.50;0.50;;;;;;;22.37;35.01;98086.31;7394872;19;20014;-82
2023/10/25 02:12:27;;;;;;;3.15;1.73;;;;;;;21.44;35.75;98083.59;7394932;19;20011;-82
2023/10/25 02:14:53;;;;;;;1.27;0.95;;;;;;;21.13;36.02;98081.28;7395404;19;20008;-82
2023/10/25 02:17:19;;;;;;;1.08;0.82;;;;;;;21.33;36.44;98075.66;7393373;19;20007;-82
2023/10/25 02:19:45;;;;;;;0.60;0.60;;;;;;;21.42;36.05;98077.78;7395753;19;20020;-79
2023/10/25 02:22:12;;;;;;;0.70;0.70;;;;;;;20.93;36.61;98074.03;7394266;19;20019;-79
2023/10/25 02:24:38;;;;;;;1.15;0.98;;;;;;;21.72;36.24;98069.44;7393344;19;20399;-80
2023/10/25 02:27:04;;;;;;;0.70;0.70;;;;;;;21.75;35.59;98059.75;7393895;19;20014;-79
2023/10/25 02:29:31;;;;;;;0.28;0.28;;;;;;;20.94;36.30;98064.19;7395256;19;20036;-79
2023/10/25 02:31:57;;;;;;;0.20;0.20;;;;;;;21.31;36.10;98055.69;7393024;19;20034;-79
2023/10/25 02:34:23;;;;;;;1.10;0.85;;;;;;;20.47;36.79;98061.88;7394224;19;19999;-80
2023/10/25 02:36:49;;;;;;;0.28;0.28;;;;;;;21.50;36.30;98050.06;7393663;19;20017;-80
2023/10/25 02:39:17;;;;;;;0.68;0.68;;;;;;;20.42;37.26;98062.91;7395112;19;20112;-80
2023/10/25 02:41:43;;;;;;;0.55;0.55;;;;;;;20.49;37.07;98053.56;7393022;19;20006;-80
2023/10/25 02:44:10;;;;;;;3.88;0.75;;;;;;;18.60;39.70;98066.06;7392587;19;20465;-80
2023/10/25 02:46:36;;;;;;;0.50;0.50;;;;;;;20.59;38.11;98056.44;7392697;19;20011;-80
2023/10/25 02:49:02;;;;;;;0.82;0.82;;;;;;;20.20;38.18;98061.91;7392963;19;20357;-80
2023/10/25 02:51:28;;;;;;;0.43;0.43;;;;;;;20.33;38.57;98053.06;7394192;19;20015;-80
2023/10/25 02:53:55;;;;;;;0.60;0.60;;;;;;;20.17;38.81;98050.97;7394438;19;20006;-80
2023/10/25 02:56:21;;;;;;;0.50;0.50;;;;;;;19.77;39.96;98061.84;7390118;19;20010;-80
2023/10/25 02:58:47;;;;;;;0.57;0.57;;;;;;;21.57;37.75;98054.84;7392458;19;20030;-80
2023/10/25 03:01:23;;;;;;;0.95;0.95;;;;;;;21.01;38.85;98049.16;7392794;19;20956;-80
2023/10/25 03:03:51;;;;;;;2.10;1.02;;;;;;;20.95;38.86;98054.38;7395403;19;20006;-80
2023/10/25 03:06:17;;;;;;;0.20;0.20;;;;;;;21.26;38.39;98042.56;7390941;19;20010;-80
2023/10/25 03:08:43;;;;;;;0.45;0.30;;;;;;;21.21;38.60;98043.59;7393216;19;20082;-80
2023/10/25 03:11:09;;;;;;;1.95;0.40;;;;;;;20.40;39.81;98040.88;7392965;19;20342;-80
2023/10/25 03:13:35;;;;;;;0.43;0.43;;;;;;;20.54;39.98;98044.06;7392780;19;20003;-80
2023/10/25 03:16:01;;;;;;;0.60;0.60;;;;;;;20.39;39.62;98047.13;7394755;19;20017;-80
2023/10/25 03:18:27;;;;;;;0.40;0.40;;;;;;;20.02;40.40;98045.50;7392699;19;20697;-80
2023/10/25 03:20:53;;;;;;;0.45;0.45;;;;;;;19.43;40.75;98042.78;7392934;19;20017;-80
2023/10/25 03:23:20;;;;;;;0.90;0.90;;;;;;;20.60;39.51;98027.56;7391671;19;20029;-80
2023/10/25 03:25:47;;;;;;;0.30;0.30;;;;;;;21.43;38.41;98028.28;7392283;19;20011;-80
2023/10/25 03:28:13;;;;;;;0.20;0.20;;;;;;;20.47;39.44;98027.19;7393753;19;20011;-80
2023/10/25 03:30:39;;;;;;;0.32;0.32;;;;;;;20.14;39.76;98026.72;7391377;19;20014;-80
2023/10/25 03:33:05;;;;;;;0.30;0.30;;;;;;;19.81;40.64;98031.84;7393190;19;20031;-80
2023/10/25 03:35:32;;;;;;;0.90;0.90;;;;;;;19.36;41.37;98033.06;7390806;19;20010;-79
2023/10/25 03:37:58;;;;;;;1.17;1.17;;;;;;;22.45;37.25;98024.50;7393151;19;20560;-80
2023/10/25 03:40:24;;;;;;;0.55;0.55;;;;;;;22.20;37.22;98026.91;7391462;19;20007;-80
2023/10/25 03:42:50;;;;;;;0.82;0.82;;;;;;;23.03;36.37;98015.75;7394175;19;20533;-80
2023/10/25 03:45:17;;;;;;;0.95;0.90;;;;;;;23.50;35.59;98020.41;7392535;19;20442;-79
2023/10/25 03:47:43;;;;;;;0.60;0.40;;;;;;;23.21;35.66;98017.75;7390535;19;20018;-80
2023/10/25 03:50:09;;;;;;;0.30;0.30;;;;;;;22.53;36.43;98016.53;7390905;19;20019;-80
2023/10/25 03:52:36;;;;;;;0.43;0.43;;;;;;;21.74;37.76;98026.38;7389549;19;20010;-80
2023/10/25 03:55:03;;;;;;;0.43;0.43;;;;;;;22.11;37.16;98016.34;7390808;19;20014;-79
2023/10/25 03:57:29;;;;;;;0.20;0.20;;;;;;;22.26;37.43;98016.00;7390313;19;20007;-80
2023/10/25 03:59:55;;;;;;;0.93;0.93;;;;;;;23.58;35.79;98018.13;7392987;19;20010;-80
2023/10/25 04:02:21;;;;;;;0.38;0.38;;;;;;;22.27;36.78;98014.69;7391559;19;20791;-80
2023/10/25 04:04:48;;;;;;;0.50;0.50;;;;;;;20.84;38.57;98018.13;7392822;19;20587;-80
2023/10/25 04:07:14;;;;;;;0.63;0.40;;;;;;;20.15;39.35;98019.72;7391718;19;20011;-80
2023/10/25 04:09:40;;;;;;;0.55;0.55;;;;;;;20.28;39.50;98022.94;7392351;19;20033;-80
2023/10/25 04:12:11;;;;;;;0.40;0.40;;;;;;;20.86;39.01;98021.13;7391830;19;20011;-80
2023/10/25 04:14:41;;;;;;;;;;;;;;;20.91;38.94;98014.44;7392848;19;20014;-80
2023/10/25 04:17:08;;;;;;;0.20;0.20;;;;;;;21.64;38.06;98008.59;7391103;19;19919;-80
2023/10/25 04:19:34;;;;;;;0.93;0.47;;;;;;;21.50;37.96;98016.81;7389697;19;20006;-80
2023/10/25 04:22:00;;;;;;;0.60;0.60;;;;;;;22.55;36.30;98013.84;7391914;19;20022;-80
2023/10/25 04:24:26;;;;;;;0.35;0.35;;;;;;;22.72;35.78;98017.84;7389048;19;20014;-80
2023/10/25 04:26:52;;;;;;;0.73;0.73;;;;;;;23.31;35.21;98023.34;7390831;19;20014;-79
2023/10/25 04:29:19;;;;;;;0.60;0.60;;;;;;;22.27;35.62;98023.19;7392332;19;20010;-80
2023/10/25 04:31:45;;;;;;;0.63;0.63;;;;;;;22.44;35.79;98020.16;7389704;19;20378;-79
2023/10/25 04:34:11;;;;;;;0.30;0.30;;;;;;;21.58;36.32;98017.41;7392351;19;20023;-80
2023/10/25 04:36:38;;;;;;;0.30;0.30;;;;;;;20.96;37.08;98013.41;7390639;19;20022;-80
2023/10/25 04:39:04;;;;;;;0.45;0.45;;;;;;;21.07;36.89;98014.97;7392011;19;20017;-80
2023/10/25 04:41:31;;;;;;;5.20;1.10;;;;;;;19.64;38.84;98024.09;7390127;19;20002;-80
2023/10/25 04:43:57;;;;;;;0.22;0.22;;;;;;;19.92;38.45;98022.84;7390297;19;20014;-80
2023/10/25 04:46:24;;;;;;;4.32;0.43;;;;;;;20.39;37.80;98019.59;7389871;19;20018;-80
2023/10/25 04:48:50;;;;;;;2.08;0.40;;;;;;;19.94;37.97;98005.31;7389172;19;20074;-80
2023/10/25 04:51:16;;;;;;;3.13;1.75;;;;;;;20.50;37.49;98007.00;7390696;19;20015;-80
2023/10/25 04:53:44;;;;;;;0.20;0.20;;;;;;;19.87;37.75;98006.16;7386907;19;21141;-80
2023/10/25 04:56:10;;;;;;;1.25;1.15;;;;;;;19.92;37.96;98007.97;7388657;19;20003;-80
2023/10/25 04:58:36;;;;;;;0.85;0.85;;;;;;;19.74;38.38;98010.06;7390358;19;20085;-80
2023/10/25 05:01:21;;;;;;;2.08;0.85;;;;;;;19.46;38.75;98010.59;7389438;19;20031;-80
2023/10/25 05:03:47;;;;;;;6.38;0.50;;;;;;;19.74;38.53;98003.66;7389718;19;20370;-80
2023/10/25 05:06:13;;;;;;;1.55;0.55;;;;;;;19.52;38.25;98006.19;7387498;19;20010;-80
2023/10/25 05:08:40;;;;;;;0.20;0.20;;;;;;;19.00;38.84;98013.09;7389765;19;20002;-80
2023/10/25 05:11:07;;;;;;;1.48;0.47;;;;;;;19.06;39.12;98005.13;7388777;19;20022;-80
2023/10/25 05:13:34;;;;;;;0.40;0.40;;;;;;;18.94;39.30;98015.41;7386944;19;20018;-79
2023/10/25 05:16:00;;;;;;;0.52;0.40;;;;;;;18.75;39.36;98009.53;7389037;19;20018;-80
2023/10/25 05:18:27;;;;;;;0.40;0.40;;;;;;;18.46;39.66;98005.63;7387834;19;20014;-80
2023/10/25 05:20:59;;;;;;;0.82;0.82;;;;;;;19.08;38.84;98013.75;7389376;19;20105;-80
2023/10/25 05:23:33;;;;;;;0.57;0.57;;;;;;;18.79;39.47;98018.34;7389268;19;20016;-80
2023/10/25 05:26:01;;;;;;;0.43;0.43;;;;;;;18.98;39.22;98015.72;7388548;19;20002;-80
2023/10/25 05:28:30;;;;;;;0.63;0.63;;;;;;;18.63;39.55;98009.25;7390924;19;20078;-80
2023/10/25 05:31:01;;;;;;;4.78;1.08;;;;;;;19.56;38.42;98002.94;7389078;19;20362;-80
2023/10/25 05:33:29;;;;;;;3.00;0.95;;;;;;;18.90;39.21;98018.63;7388712;19;20021;-80
2023/10/25 05:35:56;;;;;;;0.20;0.20;;;;;;;20.47;37.49;98005.31;7389306;19;20011;-80
2023/10/25 05:38:22;;;;;;;0.77;0.70;;;;;;;18.65;39.67;98011.50;7386655;19;20393;-80
2023/10/25 05:40:51;;;;;;;0.95;0.50;;;;;;;18.62;39.72;98015.47;7389439;19;20086;-80
2023/10/25 05:43:26;;;;;;;0.75;0.75;;;;;;;18.03;40.88;98009.63;7389067;19;20010;-80
2023/10/25 05:45:52;;;;;;;0.82;0.80;;;;;;;17.94;40.76;98010.22;7390001;19;20480;-80
2023/10/25 05:48:18;;;;;;;8.88;2.10;;;;;;;17.88;40.69;98021.72;7386629;19;20002;-80
2023/10/25 05:50:49;;;;;;;0.30;0.30;;;;;;;18.24;40.65;98020.56;7388953;19;20002;-80
2023/10/25 05:53:16;;;;;;;1.23;1.13;;;;;;;18.36;40.41;98019.56;7387797;19;20469;-80
2023/10/25 05:55:42;;;;;;;0.20;0.20;;;;;;;20.43;38.17;98005.00;7388870;19;20003;-79
2023/10/25 05:58:09;;;;;;;1.20;0.52;;;;;;;18.95;39.89;98016.88;7388062;19;20006;-80
2023/10/25 06:00:35;;;;;;;5.47;1.20;;;;;;;19.19;39.06;98012.53;7386776;19;20469;-81
2023/10/25 06:03:02;;;;;;;6.07;2.67;;;;;;;20.08;38.22;98009.25;7388982;19;20021;-81
2023/10/25 06:05:34;;;;;;;0.45;0.45;;;;;;;21.31;37.06;97999.06;7386755;19;20406;-81
2023/10/25 06:08:00;;;;;;;6.20;1.23;;;;;;;21.01;37.46;98009.53;7387393;19;20112;-81
2023/10/25 06:10:26;;;;;;;5.18;1.83;;;;;;;20.63;37.70;98000.94;7387930;19;20032;-81
2023/10/25 06:12:53;;;;;;;0.65;0.65;;;;;;;20.92;37.38;97998.94;7388349;19;20070;-81
2023/10/25 06:15:19;;;;;;;3.60;1.27;;;;;;;20.80;37.16;98003.69;7386999;19;20052;-81
2023/10/25 06:17:45;;;;;;;0.50;0.50;;;;;;;22.05;36.05;98001.72;7387794;19;20020;-81
2023/10/25 06:20:13;;;;;;;0.55;0.55;;;;;;;23.50;34.60;97999.78;7387351;19;20011;-81
2023/10/25 06:22:39;;;;;;;0.60;0.60;;;;;;;24.66;33.11;98000.88;7386194;19;20007;-81
2023/10/25 06:25:09;;;;;;;0.30;0.30;;;;;;;23.09;34.63;98010.47;7385626;19;20013;-81
2023/10/25 06:27:35;;;;;;;0.80;0.80;;;;;;;22.18;35.57;97998.41;7387172;19;20384;-81
2023/10/25 06:30:01;;;;;;;0.10;0.10;;;;;;;20.43;37.36;98010.66;7388182;19;20357;-82
2023/10/25 06:32:28;;;;;;;0.43;0.38;;;;;;;19.34;39.29;98007.50;7385081;19;20022;-81
2023/10/25 06:34:54;;;;;;;0.45;0.45;;;;;;;18.65;40.14;98006.59;7388273;19;20010;-81
2023/10/25 06:37:20;;;;;;;11.30;1.40;;;;;;;19.74;39.16;98003.66;7385408;19;20461;-81
2023/10/25 06:39:47;;;;;;;0.68;0.68;;;;;;;19.71;39.67;98002.03;7390028;19;20101;-81
2023/10/25 06:42:13;;;;;;;1.23;1.23;;;;;;;20.05;39.03;97999.88;7393180;19;20009;-81
2023/10/25 06:44:41;;;;;;;2.15;0.63;;;;;;;20.56;38.33;98001.81;7392097;19;20457;-81
2023/10/25 06:47:09;;;;;;;0.75;0.75;;;;;;;21.36;37.35;98003.66;7393835;19;20025;-81
2023/10/25 06:49:36;;;;;;;0.47;0.47;;;;;;;21.95;36.68;98003.09;7394458;19;20014;-81
2023/10/25 06:52:02;;;;;;;0.15;0.15;;;;;;;21.74;36.70;98001.59;7393487;19;20003;-81
2023/10/25 06:54:28;;;;;;;3.10;1.55;;;;;;;21.58;37.34;98002.50;7393083;19;20049;-81
2023/10/25 06:56:55;;;;;;;0.70;0.70;;;;;;;20.83;37.47;98002.50;7393686;19;20025;-81
2023/10/25 06:59:22;;;;;;;0.82;0.82;;;;;;;19.17;40.27;98010.28;7393407;19;20030;-81
2023/10/25 07:01:53;;;;;;;0.20;0.20;;;;;;;18.98;40.78;97998.81;7393414;19;20539;-80
2023/10/25 07:04:22;;;;;;;1.10;0.82;;;;;;;19.26;40.58;98000.41;7395569;19;20007;-81
2023/10/25 07:06:49;;;;;;;0.40;0.40;;;;;;;19.68;40.10;97999.00;7392452;19;20017;-80
2023/10/25 07:09:16;;;;;;;0.73;0.60;;;;;;;21.75;37.88;97991.00;7394700;19;20014;-81
2023/10/25 07:11:42;;;;;;;10.85;0.93;;;;;;;21.46;37.20;98002.31;7391852;19;20031;-81
2023/10/25 07:14:08;;;;;;;0.40;0.30;;;;;;;19.86;39.49;98004.66;7393518;19;20070;-81
2023/10/25 07:16:34;;;;;;;0.35;0.35;;;;;;;19.68;39.91;98001.84;7394260;19;20011;-81
2023/10/25 07:19:01;;;;;;;0.82;0.70;;;;;;;19.49;40.41;97998.88;7393311;19;20402;-81
2023/10/25 07:21:27;;;;;;;0.30;0.30;;;;;;;19.65;40.63;98005.84;7391873;19;20036;-81
2023/10/25 07:23:53;;;;;;;0.57;0.40;;;;;;;19.71;40.58;97999.19;7392767;19;20021;-80
2023/10/25 07:26:19;;;;;;;0.30;0.30;;;;;;;19.58;40.82;97995.38;7392012;19;20007;-81
2023/10/25 07:28:45;;;;;;;1.27;0.63;;;;;;;21.37;38.74;97980.44;7394967;19;20070;-81
2023/10/25 07:31:11;;;;;;;1.55;0.30;;;;;;;20.55;39.43;97989.00;7392158;19;20343;-81
2023/10/25 07:33:38;;;;;;;0.20;0.20;;;;;;;20.30;39.68;97989.19;7393369;19;20023;-81
2023/10/25 07:36:04;;;;;;;1.92;0.98;;;;;;;20.78;39.51;97983.72;7391452;19;20017;-81
2023/10/25 07:38:30;;;;;;;1.23;0.80;;;;;;;20.48;39.44;97984.22;7392246;19;20010;-81
2023/10/25 07:40:56;;;;;;;0.20;0.20;;;;;;;21.54;37.87;97976.69;7393727;19;20023;-81
2023/10/25 07:43:24;;;;;;;0.32;0.32;;;;;;;21.11;38.55;97976.38;7392513;19;20377;-81
2023/10/25 07:45:50;;;;;;;0.65;0.65;;;;;;;20.55;39.52;97983.34;7391771;19;20006;-81
2023/10/25 07:48:16;;;;;;;0.30;0.30;;;;;;;20.77;39.22;97975.84;7393292;19;20009;-81
2023/10/25 07:50:43;;;;;;;4.88;0.95;;;;;;;20.60;39.42;97973.81;7391611;19;20018;-81
2023/10/25 07:53:09;;;;;;;0.35;0.35;;;;;;;20.36;39.79;97971.94;7389766;19;20045;-81
2023/10/25 07:55:40;;;;;;;0.30;0.30;;;;;;;20.04;40.21;97975.03;7391198;19;20073;-80
2023/10/25 07:58:07;;;;;;;0.35;0.35;;;;;;;20.63;39.51;97972.66;7391143;19;20062;-80
2023/10/25 08:00:34;;;;;;;0.40;0.40;;;;;;;21.84;38.18;97970.44;7390788;19;20115;-81
2023/10/25 08:03:00;;;;;;;0.20;0.20;;;;;;;21.87;37.47;97967.16;7393433;19;20018;-81
2023/10/25 08:05:26;;;;;;;0.50;0.50;;;;;;;21.04;38.38;97971.59;7390210;19;20019;-81
2023/10/25 08:07:52;;;;;;;0.38;0.38;;;;;;;20.49;39.46;97973.66;7392316;19;20405;-82
2023/10/25 08:10:18;;;;;;;0.65;0.60;;;;;;;21.20;38.32;97974.16;7389884;19;20011;-81
2023/10/25 08:12:44;;;;;;;0.20;0.20;;;;;;;21.53;38.36;97969.53;7392267;19;20492;-80
2023/10/25 08:15:10;;;;;;;0.70;0.70;;;;;;;20.95;38.92;97963.81;7390331;19;20025;-80
2023/10/25 08:17:36;;;;;;;0.20;0.20;;;;;;;20.88;38.47;97959.00;7389054;19;20513;-80
2023/10/25 08:20:05;;;;;;;0.20;0.20;;;;;;;23.02;36.76;97958.19;7390148;19;20010;-80
2023/10/25 08:22:33;;;;;;;0.55;0.52;;;;;;;24.04;35.14;97961.44;7388860;19;20007;-81
2023/10/25 08:24:59;;;;;;;1.00;0.40;;;;;;;22.87;36.50;97963.56;7391245;19;20053;-80
2023/10/25 08:27:26;;;;;;;0.47;0.47;;;;;;;22.74;36.50;97961.22;7387595;19;20074;-80
2023/10/25 08:29:52;;;;;;;0.50;0.50;;;;;;;22.43;37.03;97961.94;7388894;19;20021;-80
2023/10/25 08:32:18;;;;;;;5.68;0.68;;;;;;;23.51;35.87;97962.22;7386103;19;20368;-81
2023/10/25 08:34:45;;;;;;;0.38;0.38;;;;;;;23.06;36.59;97969.84;7391930;19;20022;-80
2023/10/25 08:37:11;;;;;;;0.30;0.30;;;;;;;24.66;35.02;97972.41;7390238;19;20006;-80
2023/10/25 08:39:37;;;;;;;0.50;0.50;;;;;;;26.32;33.32;97957.94;7391114;19;20089;-80
2023/10/25 08:42:06;;;;;;;0.20;0.20;;;;;;;26.64;32.78;97959.69;7403047;19;20111;-80
2023/10/25 08:44:38;;;;;;;0.32;0.32;;;;;;;27.11;32.23;97945.00;7399970;19;20041;-80
2023/10/25 08:47:05;;;;;;;0.28;0.28;;;;;;;27.57;32.01;97945.25;7382796;19;20026;-80
2023/10/25 08:49:31;;;;;;;0.80;0.65;;;;;;;27.83;32.05;97951.53;7397161;19;20468;-81
2023/10/25 08:51:59;;;;;;;1.30;1.20;;;;;;;26.80;32.91;97954.13;7391697;19;20062;-79
2023/10/25 08:54:26;;;;;;;0.60;0.60;;;;;;;21.97;38.44;97961.47;7390407;19;20049;-80
2023/10/25 08:56:52;;;;;;;0.63;0.45;;;;;;;21.80;38.79;97955.97;7390415;19;20011;-79
2023/10/25 08:59:18;;;;;;;1.75;0.85;;;;;;;21.60;38.88;97954.47;7387941;19;20114;-80
2023/10/25 09:01:44;;;;;;;0.30;0.30;;;;;;;21.59;38.71;97947.34;7393393;19;20058;-79
2023/10/25 09:04:11;;;;;;;0.57;0.57;;;;;;;21.14;39.90;97946.88;7389900;19;20014;-80
2023/10/25 09:06:37;;;;;;;0.50;0.50;;;;;;;21.46;39.62;97953.47;7389797;19;20015;-80
2023/10/25 09:09:07;;;;;;;0.52;0.30;;;;;;;20.39;41.28;97942.50;7389234;19;20010;-80
2023/10/25 09:11:41;;;;;;;0.30;0.30;;;;;;;20.28;41.92;97940.22;7393251;19;20010;-80
2023/10/25 09:14:09;;;;;;;0.77;0.50;;;;;;;19.98;42.53;97937.81;7393288;19;20458;-80
2023/10/25 09:16:37;;;;;;;0.13;0.13;;;;;;;21.41;41.22;97934.66;7388925;19;20021;-80
2023/10/25 09:19:03;;;;;;;0.35;0.35;;;;;;;21.79;40.00;97940.28;7389304;19;20021;-80
2023/10/25 09:21:30;;;;;;;0.30;0.30;;;;;;;21.03;41.22;97936.13;7391111;19;20014;-80
2023/10/25 09:23:59;;;;;;;0.30;0.30;;;;;;;21.12;40.80;97945.97;7387712;19;20015;-80
2023/10/25 09:26:33;;;;;;;0.52;0.52;;;;;;;21.51;40.26;97946.72;7389271;19;20803;-81
2023/10/25 09:28:59;;;;;;;0.45;0.45;;;;;;;21.33;40.71;97951.06;7392684;19;20011;-82
2023/10/25 09:31:28;;;;;;;0.43;0.43;;;;;;;20.93;41.57;97943.84;7386741;19;20043;-81
2023/10/25 09:33:57;;;;;;;0.68;0.65;;;;;;;21.08;41.09;97954.91;7385585;19;20017;-81
2023/10/25 09:36:24;;;;;;;1.73;0.90;;;;;;;20.87;41.67;97963.19;7382858;19;20014;-81
2023/10/25 09:38:51;;;;;;;0.65;0.65;;;;;;;21.07;41.82;97961.91;7383871;19;20018;-81
2023/10/25 09:41:18;;;;;;;0.25;0.25;;;;;;;23.44;39.38;97963.16;7384662;19;20010;-82
2023/10/25 09:43:59;;;;;;;0.95;0.95;;;;;;;22.04;40.61;97963.41;7387086;19;20011;-81
2023/10/25 09:46:30;;;;;;;1.45;1.15;;;;;;;22.97;39.88;97961.38;7388188;19;20366;-81
2023/10/25 09:49:06;;;;;;;3.45;0.65;;;;;;;24.12;38.56;97964.06;7389275;19;20035;-80
2023/10/25 09:52:00;;;;;;;0.98;0.77;;;;;;;23.20;39.86;97970.78;7388899;19;20031;-81
2023/10/25 09:54:33;;;;;;;0.20;0.20;;;;;;;23.92;40.41;97969.19;7385198;19;20354;-81
2023/10/25 09:57:02;;;;;;;1.48;0.35;;;;;;;26.16;37.16;97959.91;7390473;19;20449;-81
2023/10/25 09:59:32;;;;;;;1.75;1.00;;;;;;;23.75;40.20;97972.34;7386725;19;20074;-81
2023/10/25 10:02:06;;;;;;;0.25;0.25;;;;;;;23.54;41.38;97966.66;7384091;19;20044;-81
2023/10/25 10:04:55;;;;;;;0.32;0.32;;;;;;;25.11;39.30;97965.22;7384272;19;20472;-81
2023/10/25 10:07:59;;;;;;;1.42;1.27;;;;;;;24.04;40.80;97969.97;7387234;19;20022;-81
2023/10/25 10:10:42;;;;;;;0.20;0.20;;;;;;;23.97;41.90;97968.06;7385099;19;20021;-81
2023/10/25 10:13:15;;;;;;;0.38;0.30;;;;;;;22.40;44.49;97977.31;7387597;19;20038;-82
2023/10/25 10:16:02;;;;;;;3.30;1.17;;;;;;;22.18;46.25;97977.81;7393010;19;20018;-81
2023/10/25 10:18:32;;;;;;;0.20;0.20;;;;;;;22.52;46.11;97981.00;7393724;19;20014;-81
2023/10/25 10:21:03;;;;;;;1.08;0.63;;;;;;;23.10;45.60;97980.72;7396295;19;20019;-81
2023/10/25 10:23:34;;;;;;;;;;;;;;;23.59;45.05;97979.03;7394315;19;20095;-82
2023/10/25 10:26:02;;;;;;;0.85;0.85;;;;;;;23.14;46.67;97975.31;7394649;19;20006;-82
2023/10/25 10:28:41;;;;;;;0.20;0.20;;;;;;;22.98;47.60;97979.91;7396423;19;20022;-82
2023/10/25 10:31:12;;;;;;;1.30;1.05;;;;;;;25.98;43.65;97978.84;7393815;19;20481;-81
2023/10/25 10:33:48;;;;;;;0.50;0.50;;;;;;;24.09;45.04;97974.56;7393560;19;20006;-82
2023/10/25 10:36:31;;;;;;;0.63;0.63;;;;;;;25.53;43.42;97969.88;7395152;19;20079;-82
2023/10/25 10:39:16;;;;;;;1.27;0.77;;;;;;;25.06;43.15;97986.28;7391286;19;20010;-81
2023/10/25 10:41:44;;;;;;;0.30;0.20;;;;;;;26.44;41.56;97981.44;7393105;19;20087;-81
2023/10/25 10:44:11;;;;;;;2.08;0.73;;;;;;;25.12;42.64;97971.66;7391324;19;20102;-82
2023/10/25 10:46:43;;;;;;;0.30;0.30;;;;;;;24.88;43.69;97965.25;7386953;19;20026;-81
2023/10/25 10:49:13;;;;;;;0.73;0.28;;;;;;;24.64;43.76;97975.13;7388134;19;20013;-80
2023/10/25 10:51:39;;;;;;;0.40;0.32;;;;;;;24.07;44.73;97976.53;7391016;19;20010;-81
2023/10/25 10:54:06;;;;;;;0.77;0.75;;;;;;;24.20;45.18;97978.03;7393190;19;20010;-81
2023/10/25 10:56:33;;;;;;;3.60;0.20;;;;;;;23.86;46.56;97991.53;7389538;19;20003;-81
2023/10/25 10:59:00;;;;;;;0.40;0.40;;;;;;;23.82;46.43;97982.72;7393555;19;20155;-81
2023/10/25 11:01:28;;;;;;;1.05;0.88;;;;;;;24.62;45.80;97972.16;7393452;19;20044;-80
2023/10/25 11:03:57;;;;;;;12.75;2.00;;;;;;;25.62;43.95;97968.94;7393795;19;20066;-81
2023/10/25 11:06:24;;;;;;;0.20;0.20;;;;;;;25.53;43.57;97970.59;7391319;19;20018;-80
2023/10/25 11:08:51;;;;;;;0.45;0.45;;;;;;;25.58;44.34;97968.72;7390406;19;20022;-80
2023/10/25 11:11:20;;;;;;;1.55;0.63;;;;;;;25.98;43.34;97964.56;7389810;19;20007;-81
2023/10/25 11:13:48;;;;;;;2.13;1.05;;;;;;;25.86;43.54;97961.06;7390409;19;20114;-80
2023/10/25 11:16:15;;;;;;;1.77;0.73;;;;;;;27.32;41.30;97959.69;7391085;19;20042;-80
2023/10/25 11:18:42;;;;;;;1.02;0.55;;;;;;;26.33;42.48;97959.44;7391355;19;20002;-81
2023/10/25 11:21:08;;;;;;;1.77;0.77;;;;;;;25.94;43.48;97955.78;7390260;19;20021;-80
2023/10/25 11:23:35;;;;;;;4.20;1.50;;;;;;;25.96;43.15;97947.34;7391109;19;20031;-81
2023/10/25 11:26:03;;;;;;;2.45;1.13;;;;;;;26.10;42.76;97946.03;7390909;19;20018;-80
2023/10/25 11:28:29;;;;;;;0.30;0.30;;;;;;;26.09;42.74;97946.69;7394561;19;20015;-80
2023/10/25 11:31:01;;;;;;;1.10;0.73;;;;;;;26.07;42.29;97937.97;7393900;19;20034;-80
2023/10/25 11:33:27;;;;;;;0.70;0.70;;;;;;;25.63;42.56;97941.16;7392076;19;20010;-80
2023/10/25 11:35:54;;;;;;;3.03;0.73;;;;;;;25.34;43.41;97933.06;7393509;19;20015;-80